Terminal Aerodrome Forecast
Issued by NWS

Home | Current Version | Previous Version | Graphics & Text | Print | Product List | Glossary On
Versions: 1 2 3 4 5 6 7 8 9 10 11 12 13 14 15 16
000
FTUS43 KBIS 072300
TAFMOT
TAF
KMOT 072339Z 0800/0824 28016KT P6SM VCTS SCT080 BKN110CB
      TEMPO 0800/0801 VRB25G40KT -SHRA BKN080
     FM080100 29011KT P6SM SCT090 SCT120
     FM081400 30015KT P6SM SCT050=

USA.gov is the U.S. government's official web portal to all federal, state and local government web resources and services.